Share

Solander Island, British Columbia

Port Hardy (CYZT) Elev 69 ft | 50.68 °N, 127.37 °W | Change Station

Current weather conditions updated 8 minutes ago

Light Rain
Light Rain
50 °F
Feels Like 50 °F
N
12
Wind Variable Wind from SE
Gusts 23 mph
Sunrise 6:30 AM
Sunset 8:32 PM
Moon Waning Gibbous

Today is forecast to be nearly the same temperature as yesterday. Windy with rain at times.

Pressure 29.59 in
Visibility 15.0 miles
Clouds Overcast 3700 ft
Dew Point 43 °F
Humidity 76%
Rainfall 0.00 in
Snow Depth Not available.
UV 2 out of 16
Pollen Not available.
Air Quality Not available.
Flu Activity Not available.
SPECI CYZT 192040Z 13010G20KT 15SM -RA OVC037 10/06 A2959 RMK SC8 SLP019

More Conditions Fewer Conditions

Pressure 29.59 in
Visibility 15.0 miles
Clouds Overcast 3700 ft
Dew Point 43 °F
Humidity 76%
Rainfall 0.00 in
Snow Depth Not available.
UV 2 out of 16
Pollen Not available.
Air Quality Not available.
Flu Activity Not available.
SPECI CYZT 192040Z 13010G20KT 15SM -RA OVC037 10/06 A2959 RMK SC8 SLP019

More Conditions Fewer Conditions

10-Day Weather Forecast

Almanac

Astronomy

Apr. 19, 2014 Rise Set
Actual Time 6:30 AM PDT 8:32 PM PDT
Civil Twilight 5:55 AM PDT 9:07 PM PDT
Nautical Twilight 5:12 AM PDT 9:50 PM PDT
Astronomical Twilight 4:23 AM PDT 10:40 PM PDT
Moon 12:36 AM PDT 9:41 AM PDT
Length of Visible Light 15h 11m
Length of Day
14h 02m
Tomorrow will be 3m 33s longer.
Waning Gibbous, 77% of the Moon is Illuminated
Today
Waning Gibbous
Apr 22
Last Quarter
Apr 29
New
May 6
First Quarter
May 14
Full

Today's Extremes

Country Highs Country Lows

Community

  • Skirting the Horizon
    Skirting the Horizon
  • Piriapolis
    Piriapolis
  • A Glorious Morning
    A Glorious Morning
  • Tender Rays Of Hope
    Tender Rays Of Hope
  • Bleeding Hearts
    Bleeding Hearts

WunderPhotos

Upload Photos

1,702,892 photos uploaded!

WunderBlogs® & News

Nearby

Snow Depth

Not available.

Coastal Water Temperatures

Place Temperature
No Stations Reporting

Earthquake Activity

City Distance Mag. Time & Date
No recent earthquake activity has been reported nearby.
Minimum magnitude displayed is 2.5.

Nearby Weather Stations

There are no personal weather stations in this area.

What do you think?

We're not finished. Please let us know what you like, what you don't like, and what you are still missing.